Terminal Aerodrome Forecast
Issued by NWS Wilmington, OH

Current Version | Previous Version | Graphics & Text | Print | Product List | Glossary On
Versions: 1 2 3 4 5 6 7 8 9 10 11 12 13 14 15 16 17 18 19 20 21 22 23 24 25
091
FTUS41 KILN 201609 AAB
TAFCMH
TAF AMD
KCMH 201609Z 2016/2112 10007KT P6SM BKN011
     FM201800 14006KT P6SM SCT012 SCT060
     FM202100 16006KT P6SM VCSH BKN050
     FM210200 14005KT P6SM SCT050 BKN150
     FM210900 15005KT P6SM -SHRA VCTS SCT030CB BKN070=

USA.gov is the U.S. government's official web portal to all federal, state and local government web resources and services.